Gesamt
Vereeniging Airport (Vereeniging, South Africa) FAVV Wetter
|
Vereeniging, South Africa (FAVV)
Klarer Himmel
Windstill |
|
3 °C |
There is no TAF data available at FAVV or any nearby airports.
Kürzlicher METAR-Verlauf für FAVV
| Date | Time (SAST) | Flight Rules | Wind Dir. | Speed | Type | Height AGL (ft) | Visibility | Temp (°C) | Temp (°F) | Dew Point (°C) | Dew Point (°F) | Rel. Humid. | Pressure | Density Altitude | Remarks |
|---|---|---|---|---|---|---|---|---|---|---|---|---|---|---|---|
| 09-Mai | 01:00 | n/a | 300° | 3 kt | Missing | 3° | 37° | 2° | 35° | 93% | 1022 mb | 4.109 ft | |||
| 09-Mai | 00:00 | n/a | 320° | 2 kt | Missing | 3° | 37° | 2° | 35° | 93% | 1021 mb | 4.138 ft | |||
| 08-Mai | 23:00 | n/a | 280° | 3 kt | Missing | 4° | 39° | 3° | 37° | 93% | 1023 mb | 4.199 ft | |||
| 08-Mai | 22:00 | n/a | 270° | 1 kt | Missing | 6° | 42° | 3° | 37° | 81% | 1022 mb | 4.469 ft | |||
| 08-Mai | 21:00 | n/a | 280° | 3 kt | Missing | 6° | 42° | 3° | 37° | 81% | 1023 mb | 4.439 ft | |||
| 08-Mai | 20:00 | n/a | 270° | 3 kt | Missing | 8° | 46° | 4° | 39° | 76% | 1022 mb | 4.709 ft | |||
| gap in available data | |||||||||||||||
| 08-Mai | 18:00 | n/a | 180° | 2 kt | Missing | 13° | 55° | 3° | 37° | 51% | 1021 mb | 5.338 ft | |||
| 08-Mai | 17:00 | n/a | 200° | 4 kt | Missing | 15° | 59° | 2° | 35° | 41% | 1021 mb | 5.578 ft | |||
| 08-Mai | 16:00 | n/a | 230° | 4 kt | Missing | 17° | 62° | 2° | 35° | 36% | 1021 mb | 5.818 ft | |||
| gap in available data | |||||||||||||||
| 08-Mai | 14:00 | n/a | 240° | 5 kt | Missing | 16° | 60° | 3° | 37° | 42% | 1021 mb | 5.698 ft | |||
| 08-Mai | 13:00 | n/a | 210° | 5 kt | Missing | 14° | 57° | 2° | 35° | 44% | 1022 mb | 5.429 ft | |||
| 08-Mai | 12:00 | n/a | 220° | 5 kt | Missing | 14° | 57° | 3° | 37° | 47% | 1023 mb | 5.399 ft | |||
| 08-Mai | 11:00 | n/a | 200° | 6 kt | Missing | 12° | 53° | 3° | 37° | 54% | 1023 mb | 5.159 ft | |||
| 08-Mai | 10:00 | n/a | 190° | 5 kt | Missing | 11° | 51° | 4° | 39° | 62% | 1024 mb | 5.010 ft | |||
| 08-Mai | 09:00 | n/a | 220° | 3 kt | Missing | 10° | 50° | 6° | 42° | 76% | 1024 mb | 4.890 ft | |||
| gap in available data | |||||||||||||||
| 08-Mai | 06:00 | n/a | 280° | 3 kt | Missing | 2° | 35° | 2° | 35° | 100% | 1022 mb | 3.989 ft | |||
| 08-Mai | 05:00 | n/a | 260° | 2 kt | Missing | 2° | 35° | 2° | 35° | 100% | 1021 mb | 4.018 ft | |||
| 08-Mai | 04:00 | n/a | 290° | 3 kt | Missing | 2° | 35° | 2° | 35° | 100% | 1021 mb | 4.018 ft | |||
| 08-Mai | 03:00 | n/a | 270° | 3 kt | Missing | 3° | 37° | 2° | 35° | 93% | 1021 mb | 4.138 ft | |||
| 08-Mai | 02:00 | n/a | 280° | 3 kt | Missing | 3° | 37° | 2° | 35° | 93% | 1021 mb | 4.138 ft | |||
| 08-Mai | 01:00 | n/a | 300° | 3 kt | Missing | 4° | 39° | 3° | 37° | 93% | 1021 mb | 4.258 ft | |||
| 08-Mai | 00:00 | n/a | 210° | 2 kt | Missing | 6° | 42° | 3° | 37° | 81% | 1022 mb | 4.469 ft | |||
| 07-Mai | 23:00 | n/a | 210° | 3 kt | Missing | 7° | 44° | 4° | 39° | 81% | 1023 mb | 4.559 ft | |||
| 07-Mai | 22:00 | n/a | 210° | 3 kt | Missing | 7° | 44° | 4° | 39° | 81% | 1023 mb | 4.559 ft | |||
Anmelden
| Ihr Browser wird nicht unterstützt. aktualisieren Sie Ihren Browser |
